Time;durP1;ratioP1;P1;durP2;ratioP2;P2;SDS_P1;SDS_P2;PMS_P1;PMS_P2;Temp;Humidity;BMP_temperature;BMP_pressure;BME280_temperature;BME280_humidity;BME280_pressure;Samples;Min_cycle;Max_cycle;Signal;HPM_P1;HPM_P2
2023/01/14 00:01:27;;;;;;;;;28.00;25.00;25.20;44.10;;;;;;112297;1247;55664;-69
2023/01/14 00:03:54;;;;;;;;;26.00;25.00;25.30;44.20;;;;;;112311;1247;50369;-68
2023/01/14 00:06:24;;;;;;;;;29.00;26.50;25.30;44.20;;;;;;112330;1247;49320;-68
2023/01/14 00:08:57;;;;;;;;;25.33;24.33;25.30;44.20;;;;;;112199;1245;45513;-67
2023/01/14 00:14:12;;;;;;;;;31.00;26.33;25.30;44.20;;;;;;112243;1248;56084;-69
2023/01/14 00:16:38;;;;;;;;;30.75;28.00;25.30;44.20;;;;;;112312;1247;49523;-68
2023/01/14 00:19:05;;;;;;;;;27.00;24.00;25.20;44.10;;;;;;112313;1244;50435;-68
2023/01/14 00:21:32;;;;;;;;;28.00;25.67;25.20;44.10;;;;;;111693;1247;791499;-69
2023/01/14 00:23:59;;;;;;;;;27.00;25.50;25.20;44.10;;;;;;112323;1247;55679;-68
2023/01/14 00:26:26;;;;;;;;;26.67;24.00;25.20;44.20;;;;;;112312;1247;56119;-69
2023/01/14 00:28:54;;;;;;;;;33.00;29.75;25.20;44.20;;;;;;112298;1247;49035;-68
2023/01/14 00:31:24;;;;;;;;;31.33;28.00;25.20;44.20;;;;;;112216;1248;49941;-68
2023/01/14 00:33:51;;;;;;;;;30.67;27.67;25.20;44.20;;;;;;112304;1247;45687;-69
2023/01/14 00:36:21;;;;;;;;;31.00;27.50;25.20;44.20;;;;;;112316;1247;55677;-68
2023/01/14 00:38:48;;;;;;;;;30.50;29.00;25.20;44.30;;;;;;112320;1247;56277;-69
2023/01/14 00:41:19;;;;;;;;;34.00;29.00;25.20;44.30;;;;;;112285;1247;49823;-68
2023/01/14 00:43:49;;;;;;;;;29.50;28.00;25.20;44.30;;;;;;112208;1248;49979;-69
2023/01/14 00:46:21;;;;;;;;;29.00;26.00;25.20;44.30;;;;;;112299;1245;45131;-69
2023/01/14 00:48:47;;;;;;;;;35.00;30.67;25.20;44.30;;;;;;112319;1243;55619;-68
2023/01/14 00:51:16;;;;;;;;;29.50;27.25;25.20;44.20;;;;;;112296;1247;56693;-69
2023/01/14 00:53:45;;;;;;;;;31.67;26.00;25.10;44.20;;;;;;112348;1247;49005;-68
2023/01/14 00:56:13;;;;;;;;;30.50;27.00;25.10;44.20;;;;;;112332;1247;49784;-68
2023/01/14 00:58:40;;;;;;;;;32.00;28.33;25.10;44.20;;;;;;112306;1247;45587;-68
2023/01/14 01:01:07;;;;;;;;;33.00;28.00;25.10;44.20;;;;;;112311;1243;56132;-68
2023/01/14 01:03:43;;;;;;;;;31.00;29.67;25.10;44.20;;;;;;112280;1244;56944;-68
2023/01/14 01:06:11;;;;;;;;;35.33;30.67;25.10;44.20;;;;;;112303;1247;50558;-69
2023/01/14 01:08:38;;;;;;;;;30.33;26.00;25.10;44.20;;;;;;112308;1247;49786;-69
2023/01/14 01:11:06;;;;;;;;;29.00;27.50;25.10;44.20;;;;;;112294;1247;46013;-68
2023/01/14 01:13:34;;;;;;;;;30.33;27.67;25.10;44.20;;;;;;112347;1247;55882;-69
2023/01/14 01:16:04;;;;;;;;;33.33;29.67;25.10;44.20;;;;;;112306;1247;56879;-68
2023/01/14 01:18:31;;;;;;;;;28.00;26.00;25.00;44.10;;;;;;112298;1247;49208;-68
2023/01/14 01:21:09;;;;;;;;;38.33;29.33;25.00;44.00;;;;;;112311;1243;50022;-68
2023/01/14 01:23:40;;;;;;;;;30.00;27.00;25.00;43.80;;;;;;112321;1244;45959;-69
2023/01/14 01:26:15;;;;;;;;;29.25;26.50;25.10;43.90;;;;;;112318;1247;55605;-69
2023/01/14 01:28:43;;;;;;;;;28.00;26.00;25.10;43.90;;;;;;112297;1247;55801;-69
2023/01/14 01:31:11;;;;;;;;;29.00;24.50;25.10;44.00;;;;;;112314;1243;49803;-68
2023/01/14 01:33:39;;;;;;;;;28.75;25.50;25.10;44.00;;;;;;112288;1243;50350;-68
2023/01/14 01:36:13;;;;;;;;;32.75;26.50;25.10;44.00;;;;;;112299;1243;45847;-69
2023/01/14 01:38:40;;;;;;;;;25.25;24.50;25.10;44.10;;;;;;112224;1247;55503;-69
2023/01/14 01:41:12;;;;;;;;;32.00;28.67;25.20;44.10;;;;;;112299;1244;56382;-68
2023/01/14 01:43:57;;;;;;;;;33.00;28.00;25.10;44.00;;;;;;112201;1247;50451;-69
2023/01/14 01:46:24;;;;;;;;;31.50;26.25;25.20;44.10;;;;;;112275;1245;49730;-69
2023/01/14 01:48:51;;;;;;;;;28.50;26.00;25.20;44.00;;;;;;112310;1243;45133;-68
2023/01/14 01:51:21;;;;;;;;;30.00;24.50;25.20;44.00;;;;;;112220;1244;56798;-68
2023/01/14 01:53:51;;;;;;;;;30.00;27.75;25.30;44.00;;;;;;112311;1243;55420;-69
2023/01/14 01:56:21;;;;;;;;;32.00;29.00;25.20;43.90;;;;;;112290;1244;49042;-68
2023/01/14 01:58:48;;;;;;;;;27.33;25.67;25.30;44.20;;;;;;112296;1247;49708;-68
2023/01/14 02:01:16;;;;;;;;;33.00;30.00;25.30;44.00;;;;;;112308;1244;46111;-70
2023/01/14 02:03:44;;;;;;;;;29.00;28.00;25.30;43.90;;;;;;112160;1244;56320;-69
2023/01/14 02:06:13;;;;;;;;;37.00;30.25;25.30;43.90;;;;;;112190;1248;56454;-69
2023/01/14 02:08:42;;;;;;;;;35.50;30.00;25.20;43.80;;;;;;112131;1249;50538;-69
2023/01/14 02:11:34;;;;;;;;;35.67;29.00;25.20;43.80;;;;;;112241;1244;49051;-68
2023/01/14 02:14:33;;;;;;;;;36.25;29.75;25.30;43.80;;;;;;112211;1247;45989;-69
2023/01/14 02:17:03;;;;;;;;;31.00;28.00;25.30;43.80;;;;;;112079;1247;57387;-69
2023/01/14 02:19:57;;;;;;;;;29.67;25.67;25.30;43.80;;;;;;112196;1248;55469;-69
2023/01/14 02:22:38;;;;;;;;;32.50;27.00;25.30;43.70;;;;;;112203;1249;49541;-68
2023/01/14 02:25:08;;;;;;;;;29.00;26.33;25.30;43.70;;;;;;112209;1244;50633;-69
2023/01/14 02:28:02;;;;;;;;;30.75;26.00;25.30;43.70;;;;;;112223;1247;45336;-69
2023/01/14 02:30:36;;;;;;;;;36.33;29.00;25.30;43.90;;;;;;112199;1248;56222;-68
2023/01/14 02:33:15;;;;;;;;;37.00;28.67;25.20;43.70;;;;;;112172;1248;56129;-69
2023/01/14 02:36:00;;;;;;;;;38.75;31.25;25.30;43.70;;;;;;112209;1248;49850;-69
2023/01/14 02:38:42;;;;;;;;;30.50;26.75;25.20;43.70;;;;;;112187;1248;49703;-69
2023/01/14 02:44:06;;;;;;;;;31.75;29.25;25.30;43.80;;;;;;112124;1245;46618;-69
2023/01/14 02:44:11;;;;;;;;;28.00;25.00;25.30;43.70;;;;;;112189;1244;56857;-68
2023/01/14 02:46:52;;;;;;;;;31.33;28.00;25.20;43.70;;;;;;112163;1248;56747;-68
2023/01/14 02:49:41;;;;;;;;;35.50;31.00;25.20;43.60;;;;;;112183;1248;49713;-69
2023/01/14 02:52:08;;;;;;;;;30.67;26.67;25.30;43.70;;;;;;112127;1249;49370;-69
2023/01/14 02:54:35;;;;;;;;;27.67;25.00;25.30;43.70;;;;;;112177;1244;47063;-68
2023/01/14 02:57:22;;;;;;;;;31.50;26.50;25.30;43.70;;;;;;112215;1248;56381;-69
2023/01/14 03:00:24;;;;;;;;;29.25;26.00;25.20;43.70;;;;;;112203;1247;55989;-68
2023/01/14 03:02:57;;;;;;;;;29.75;26.00;25.20;43.70;;;;;;112172;1248;49322;-69
2023/01/14 03:05:43;;;;;;;;;30.67;26.33;25.20;43.60;;;;;;112158;1248;49817;-68
2023/01/14 03:08:35;;;;;;;;;27.00;23.67;25.20;43.60;;;;;;112211;1248;45934;-68
2023/01/14 03:11:07;;;;;;;;;32.67;30.00;25.20;43.60;;;;;;112219;1248;56470;-69
2023/01/14 03:13:51;;;;;;;;;32.00;28.50;25.20;43.60;;;;;;112195;1244;55239;-69
2023/01/14 03:16:28;;;;;;;;;31.00;27.75;25.20;43.70;;;;;;112182;1244;49908;-68
2023/01/14 03:19:00;;;;;;;;;30.50;27.25;25.10;43.60;;;;;;112185;1244;50152;-66
2023/01/14 03:21:40;;;;;;;;;30.25;28.25;25.10;43.60;;;;;;112223;1247;45773;-67
2023/01/14 03:24:12;;;;;;;;;27.00;26.00;25.10;43.70;;;;;;112177;1244;56169;-68
2023/01/14 03:26:42;;;;;;;;;33.00;28.67;25.20;43.70;;;;;;112096;1244;56319;-69
2023/01/14 03:29:15;;;;;;;;;29.50;25.50;25.10;43.70;;;;;;112173;1245;49638;-68
2023/01/14 03:31:48;;;;;;;;;28.50;25.50;25.10;43.70;;;;;;112178;1248;49805;-68
2023/01/14 03:34:19;;;;;;;;;31.75;26.50;25.10;43.70;;;;;;112206;1244;45571;-69
2023/01/14 03:36:47;;;;;;;;;34.33;28.00;25.10;43.70;;;;;;112234;1248;56352;-68
2023/01/14 03:39:18;;;;;;;;;26.50;25.50;25.00;43.70;;;;;;112086;1249;55379;-69
2023/01/14 03:44:48;;;;;;;;;30.75;25.50;25.00;43.70;;;;;;112188;1249;49606;-68
2023/01/14 03:47:15;;;;;;;;;24.33;23.33;25.00;43.70;;;;;;112185;1248;46808;-68
2023/01/14 03:49:42;;;;;;;;;25.00;22.25;25.00;43.50;;;;;;112255;1247;55837;-66
2023/01/14 03:52:28;;;;;;;;;29.00;24.50;25.00;43.50;;;;;;112283;1247;56840;-69
2023/01/14 03:55:06;;;;;;;;;27.00;25.00;25.00;43.70;;;;;;112210;1245;48900;-66
2023/01/14 03:57:42;;;;;;;;;23.67;22.00;25.00;43.60;;;;;;112273;1249;49137;-67
2023/01/14 04:00:35;;;;;;;;;27.00;24.00;25.00;43.70;;;;;;112360;1247;45411;-69
2023/01/14 04:03:05;;;;;;;;;33.67;31.33;25.10;43.90;;;;;;112377;1245;55881;-68
2023/01/14 04:05:32;;;;;;;;;28.33;25.33;25.10;43.70;;;;;;112334;1247;56245;-68
2023/01/14 04:08:00;;;;;;;;;25.50;24.00;25.10;43.60;;;;;;112291;1247;49717;-65
2023/01/14 04:10:26;;;;;;;;;24.00;22.00;25.10;43.50;;;;;;112321;1244;49071;-68
2023/01/14 04:15:39;;;;;;;;;26.00;22.00;25.10;43.40;;;;;;112350;1247;56652;-67
2023/01/14 04:18:06;;;;;;;;;23.00;20.00;25.10;43.40;;;;;;112325;1243;55653;-65
2023/01/14 04:20:33;;;;;;;;;30.50;26.00;25.10;43.60;;;;;;112223;1248;49861;-63
2023/01/14 04:23:00;;;;;;;;;28.25;26.50;25.10;43.10;;;;;;112278;1244;50297;-64
2023/01/14 04:25:27;;;;;;;;;27.67;23.67;25.10;43.20;;;;;;112348;1244;46104;-65
2023/01/14 04:27:54;;;;;;;;;32.50;26.75;25.10;43.10;;;;;;112159;1248;55762;-64
2023/01/14 04:30:22;;;;;;;;;31.75;29.00;25.20;43.20;;;;;;111983;1247;57523;-65
2023/01/14 04:32:49;;;;;;;;;26.00;25.00;25.10;42.80;;;;;;112269;1247;49889;-65
2023/01/14 04:35:18;;;;;;;;;27.00;25.50;25.10;42.80;;;;;;112234;1244;48994;-63
2023/01/14 04:37:46;;;;;;;;;32.00;27.00;25.20;42.90;;;;;;112154;1247;45369;-62
2023/01/14 04:40:13;;;;;;;;;27.75;23.75;25.20;42.90;;;;;;112329;1244;56804;-61
2023/01/14 04:42:40;;;;;;;;;30.67;27.00;25.20;42.90;;;;;;112222;1248;55977;-66
2023/01/14 04:45:08;;;;;;;;;31.67;28.67;25.20;42.90;;;;;;112275;1247;49119;-62
2023/01/14 04:47:35;;;;;;;;;23.50;21.50;25.20;42.90;;;;;;112290;1247;49568;-62
2023/01/14 04:50:30;;;;;;;;;25.00;24.00;25.20;43.00;;;;;;112227;1247;46290;-63
2023/01/14 04:52:53;;;;;;;;;31.25;29.25;25.20;43.10;;;;;;112311;1244;56875;-62
2023/01/14 04:55:20;;;;;;;;;27.33;24.00;25.20;43.10;;;;;;112148;1245;56617;-66
2023/01/14 04:57:47;;;;;;;;;25.25;22.00;25.20;43.20;;;;;;112306;1247;49716;-61
2023/01/14 05:00:15;;;;;;;;;28.33;24.00;25.20;43.30;;;;;;112310;1247;48987;-60
2023/01/14 05:02:41;;;;;;;;;30.00;25.00;25.20;43.30;;;;;;112339;1243;46587;-60
2023/01/14 05:05:09;;;;;;;;;24.50;22.25;25.20;43.50;;;;;;112340;1244;56450;-62
2023/01/14 05:07:36;;;;;;;;;29.50;25.75;25.20;43.50;;;;;;112354;1244;56436;-61
2023/01/14 05:10:04;;;;;;;;;25.00;24.00;25.20;43.50;;;;;;112333;1244;49143;-61
2023/01/14 05:12:30;;;;;;;;;29.25;26.00;25.20;43.80;;;;;;112318;1247;49253;-61
2023/01/14 05:14:57;;;;;;;;;26.00;22.00;25.30;43.60;;;;;;112314;1247;46289;-67
2023/01/14 05:17:24;;;;;;;;;28.67;26.00;25.20;43.60;;;;;;112291;1243;56091;-64
2023/01/14 05:19:51;;;;;;;;;33.00;28.67;25.30;43.90;;;;;;112284;1247;55597;-60
2023/01/14 05:22:18;;;;;;;;;34.33;30.67;25.30;42.20;;;;;;112299;1247;49557;-64
2023/01/14 05:24:45;;;;;;;;;30.33;28.67;25.20;41.30;;;;;;112294;1243;49499;-66
2023/01/14 05:27:12;;;;;;;;;30.50;26.00;25.20;42.20;;;;;;112313;1247;45825;-63
2023/01/14 05:29:39;;;;;;;;;33.00;28.00;25.20;42.60;;;;;;112291;1243;55692;-64
2023/01/14 05:32:06;;;;;;;;;28.75;25.25;25.20;42.60;;;;;;112278;1247;55761;-64
2023/01/14 05:34:33;;;;;;;;;28.67;26.00;25.20;42.80;;;;;;112282;1247;50632;-65
2023/01/14 05:37:00;;;;;;;;;31.00;26.25;25.20;42.90;;;;;;112312;1247;48765;-63
2023/01/14 05:39:26;;;;;;;;;25.00;23.75;25.20;43.10;;;;;;112313;1247;46067;-63
2023/01/14 05:47:24;;;;;;;;;31.00;26.00;25.20;42.70;;;;;;112281;1247;50033;-63
2023/01/14 05:49:51;;;;;;;;;30.00;28.00;25.20;42.80;;;;;;112314;1247;49731;-64
2023/01/14 05:52:18;;;;;;;;;37.50;32.50;25.20;43.00;;;;;;112293;1247;45822;-62
2023/01/14 05:54:45;;;;;;;;;28.00;26.50;25.20;43.20;;;;;;112321;1244;55556;-63
2023/01/14 05:57:13;;;;;;;;;25.75;24.50;25.20;43.10;;;;;;112312;1243;55478;-60
2023/01/14 05:59:41;;;;;;;;;29.00;26.00;25.20;43.10;;;;;;112299;1247;49547;-64
2023/01/14 06:06:20;;;;;;;;;35.00;26.00;25.20;43.20;;;;;;112309;1244;45387;-62
2023/01/14 06:07:56;;;;;;;;;36.00;29.00;25.20;43.70;;;;;;112266;1244;56054;-62
2023/01/14 06:10:24;;;;;;;;;33.50;31.00;25.30;42.60;;;;;;112194;1247;55584;-64
2023/01/14 06:12:58;;;;;;;;;28.75;25.75;25.20;42.20;;;;;;112184;1248;49368;-61
2023/01/14 06:15:29;;;;;;;;;35.50;29.00;25.20;42.60;;;;;;112178;1244;49764;-62
2023/01/14 06:18:08;;;;;;;;;36.00;30.75;25.20;41.80;;;;;;112204;1244;46815;-64
2023/01/14 06:20:36;;;;;;;;;37.00;29.00;25.20;41.70;;;;;;112192;1248;55414;-64
2023/01/14 06:23:05;;;;;;;;;38.67;29.00;25.20;41.70;;;;;;112202;1248;56667;-61
2023/01/14 06:25:33;;;;;;;;;33.00;28.50;25.10;41.70;;;;;;112207;1247;49485;-60
2023/01/14 06:28:00;;;;;;;;;32.67;29.67;25.10;41.80;;;;;;112235;1243;49264;-63
2023/01/14 06:30:28;;;;;;;;;38.00;32.25;25.10;42.20;;;;;;112322;1247;45835;-63
2023/01/14 06:32:56;;;;;;;;;27.00;26.50;25.20;42.30;;;;;;112300;1247;55624;-69
2023/01/14 06:35:22;;;;;;;;;33.75;29.00;25.20;42.30;;;;;;112284;1244;55208;-68
2023/01/14 06:37:50;;;;;;;;;27.75;25.75;25.20;42.30;;;;;;112297;1247;49550;-65
2023/01/14 06:40:17;;;;;;;;;35.33;31.67;25.20;42.30;;;;;;112316;1247;50636;-65
2023/01/14 06:42:44;;;;;;;;;37.00;32.00;25.30;42.40;;;;;;112299;1247;45707;-69
2023/01/14 06:45:11;;;;;;;;;31.33;27.33;25.30;42.50;;;;;;112325;1243;56553;-68
2023/01/14 06:47:38;;;;;;;;;34.67;27.67;25.30;42.40;;;;;;112298;1243;56378;-68
2023/01/14 06:50:06;;;;;;;;;39.67;32.00;25.30;42.50;;;;;;112300;1244;49830;-70
2023/01/14 06:52:33;;;;;;;;;38.00;30.00;25.20;43.10;;;;;;112306;1247;49204;-67
2023/01/14 06:55:00;;;;;;;;;31.00;30.00;25.30;42.70;;;;;;112291;1247;45552;-68
2023/01/14 06:57:27;;;;;;;;;39.33;31.67;25.30;42.90;;;;;;112308;1247;55973;-65
2023/01/14 06:59:54;;;;;;;;;47.00;34.00;25.30;42.60;;;;;;112303;1247;55803;-66
2023/01/14 07:02:21;;;;;;;;;42.25;32.00;25.30;41.60;;;;;;112306;1243;51014;-65
2023/01/14 07:04:48;;;;;;;;;51.00;37.00;25.20;41.20;;;;;;112277;1243;50427;-66
2023/01/14 07:07:14;;;;;;;;;34.33;30.33;25.20;40.50;;;;;;112280;1247;45911;-65
2023/01/14 07:09:42;;;;;;;;;36.33;29.67;25.20;41.20;;;;;;112317;1244;55880;-66
2023/01/14 07:12:09;;;;;;;;;37.50;30.00;25.10;41.70;;;;;;112344;1243;55924;-66
2023/01/14 07:14:36;;;;;;;;;38.00;31.00;25.10;42.00;;;;;;112321;1243;48880;-63
2023/01/14 07:17:03;;;;;;;;;34.25;28.25;25.10;42.30;;;;;;112304;1247;50586;-62
2023/01/14 07:19:30;;;;;;;;;35.00;31.00;25.10;42.50;;;;;;112310;1247;45934;-62
2023/01/14 07:21:57;;;;;;;;;37.00;31.50;25.10;42.60;;;;;;112233;1248;56482;-65
2023/01/14 07:24:24;;;;;;;;;39.33;29.67;25.10;43.00;;;;;;112313;1247;56136;-65
2023/01/14 07:26:51;;;;;;;;;36.33;30.67;25.10;43.10;;;;;;112297;1244;49251;-66
2023/01/14 07:29:18;;;;;;;;;40.00;34.00;25.10;43.00;;;;;;112298;1243;49149;-71
2023/01/14 07:31:45;;;;;;;;;42.00;33.67;25.10;43.20;;;;;;112316;1244;45539;-71
2023/01/14 07:34:12;;;;;;;;;48.33;35.33;25.10;43.40;;;;;;112332;1247;56075;-71
2023/01/14 07:36:39;;;;;;;;;56.25;39.00;25.10;43.30;;;;;;112278;1247;56190;-77
2023/01/14 07:39:05;;;;;;;;;60.50;40.00;25.10;43.50;;;;;;112308;1244;49918;-71
2023/01/14 07:41:32;;;;;;;;;59.33;41.33;25.10;43.60;;;;;;112290;1247;49746;-76
2023/01/14 07:44:00;;;;;;;;;56.00;41.00;25.10;43.50;;;;;;112288;1244;45423;-68
2023/01/14 07:46:27;;;;;;;;;58.00;41.75;25.10;43.70;;;;;;112322;1247;55901;-70
2023/01/14 07:48:54;;;;;;;;;60.33;42.33;25.10;43.90;;;;;;112288;1247;55702;-68
2023/01/14 07:51:23;;;;;;;;;66.33;44.67;25.10;43.90;;;;;;112233;1243;50251;-68
2023/01/14 07:53:50;;;;;;;;;59.75;43.25;25.10;44.10;;;;;;112159;1247;50311;-68
2023/01/14 07:56:17;;;;;;;;;70.00;48.33;25.10;44.20;;;;;;112306;1244;45671;-69
2023/01/14 07:58:44;;;;;;;;;62.00;44.00;25.10;44.20;;;;;;112306;1247;56519;-68
2023/01/14 08:01:10;;;;;;;;;59.50;46.00;25.00;44.30;;;;;;112216;1244;56036;-68
2023/01/14 08:03:37;;;;;;;;;75.00;47.75;25.00;44.30;;;;;;112302;1247;49219;-69
2023/01/14 08:06:06;;;;;;;;;71.75;49.00;25.00;44.40;;;;;;112267;1247;49621;-68
2023/01/14 08:08:33;;;;;;;;;76.50;48.00;24.90;44.40;;;;;;112113;1250;46748;-68
2023/01/14 08:11:01;;;;;;;;;59.50;43.75;24.90;44.90;;;;;;112232;1248;56417;-69
2023/01/14 08:13:28;;;;;;;;;62.00;43.00;24.90;44.40;;;;;;112203;1244;56180;-69
2023/01/14 08:15:59;;;;;;;;;71.00;45.00;24.90;44.40;;;;;;112153;1248;50660;-68
2023/01/14 08:18:26;;;;;;;;;68.00;49.00;24.90;45.00;;;;;;112184;1244;49312;-68
2023/01/14 08:20:58;;;;;;;;;67.00;49.00;24.90;44.50;;;;;;112212;1249;46427;-69
2023/01/14 08:23:25;;;;;;;;;63.50;45.50;24.90;44.50;;;;;;112192;1249;57367;-69
2023/01/14 08:25:53;;;;;;;;;74.25;48.75;24.90;44.60;;;;;;112203;1248;55940;-68
2023/01/14 08:28:20;;;;;;;;;67.75;46.75;24.90;44.60;;;;;;112158;1248;50745;-68
2023/01/14 08:30:46;;;;;;;;;63.50;47.00;24.80;44.50;;;;;;112116;1249;49062;-68
2023/01/14 08:33:14;;;;;;;;;62.75;43.00;24.80;44.50;;;;;;112203;1248;45991;-68
2023/01/14 08:35:41;;;;;;;;;70.00;48.50;24.80;44.60;;;;;;112207;1244;56553;-68
2023/01/14 08:38:07;;;;;;;;;60.50;44.50;24.80;44.60;;;;;;112230;1248;55523;-68
2023/01/14 08:40:34;;;;;;;;;64.75;45.25;24.80;44.60;;;;;;112185;1245;48830;-68
2023/01/14 08:43:01;;;;;;;;;63.67;45.00;24.80;44.60;;;;;;112184;1249;50280;-69
2023/01/14 08:45:29;;;;;;;;;63.67;45.67;24.80;44.60;;;;;;112099;1249;46360;-68
2023/01/14 08:47:56;;;;;;;;;65.00;43.75;24.80;44.60;;;;;;112189;1248;56454;-68
2023/01/14 08:50:23;;;;;;;;;62.00;45.00;24.70;44.60;;;;;;112192;1248;56713;-70
2023/01/14 08:52:50;;;;;;;;;53.00;40.67;24.70;44.60;;;;;;112209;1244;49876;-69
2023/01/14 08:55:17;;;;;;;;;52.67;40.33;24.70;44.60;;;;;;112213;1248;49743;-69
2023/01/14 08:57:44;;;;;;;;;57.00;40.67;24.70;44.60;;;;;;112193;1248;46131;-69
2023/01/14 09:00:12;;;;;;;;;58.50;39.00;24.70;44.60;;;;;;112218;1248;56684;-69
2023/01/14 09:02:39;;;;;;;;;58.50;41.50;24.70;44.60;;;;;;112194;1248;56624;-69
2023/01/14 09:05:07;;;;;;;;;55.00;40.33;24.60;44.50;;;;;;112192;1244;50114;-69
2023/01/14 09:18:35;;;;;;;;;54.50;39.00;24.60;44.60;;;;;;112181;1248;49724;-69
2023/01/14 09:21:02;;;;;;;;;60.75;40.75;24.60;44.60;;;;;;112117;1249;50114;-69
2023/01/14 09:23:29;;;;;;;;;55.00;40.00;24.60;44.60;;;;;;112210;1248;45869;-69
2023/01/14 09:25:56;;;;;;;;;54.00;39.00;24.60;45.10;;;;;;112186;1248;56058;-68
2023/01/14 09:28:23;;;;;;;;;56.75;40.25;24.60;44.60;;;;;;112180;1248;55560;-69
2023/01/14 09:30:50;;;;;;;;;56.00;39.75;24.60;44.80;;;;;;112161;1248;50106;-69
2023/01/14 09:33:17;;;;;;;;;53.50;38.50;24.60;44.60;;;;;;112202;1248;49379;-69
2023/01/14 09:35:44;;;;;;;;;57.50;37.00;24.60;44.60;;;;;;112192;1248;45773;-69
2023/01/14 09:38:11;;;;;;;;;48.00;34.00;24.60;44.60;;;;;;112230;1248;55972;-69
2023/01/14 09:40:39;;;;;;;;;51.33;38.00;24.60;44.60;;;;;;112196;1244;56767;-69
2023/01/14 09:43:15;;;;;;;;;51.33;38.00;24.60;44.60;;;;;;112201;1248;49758;-69
2023/01/14 09:45:43;;;;;;;;;50.75;39.25;24.60;44.60;;;;;;112197;1248;49713;-69
2023/01/14 09:48:16;;;;;;;;;49.00;39.50;24.60;44.60;;;;;;112159;1244;46385;-69
2023/01/14 09:51:06;;;;;;;;;51.00;41.00;24.60;44.60;;;;;;112307;1244;56627;-69
2023/01/14 09:53:55;;;;;;;;;46.50;33.00;24.60;44.50;;;;;;112298;1244;56105;-69
2023/01/14 09:56:25;;;;;;;;;46.50;34.00;24.60;44.50;;;;;;112286;1244;50418;-69
2023/01/14 09:58:54;;;;;;;;;48.50;35.25;24.60;44.50;;;;;;112265;1247;50012;-70
2023/01/14 10:01:47;;;;;;;;;48.00;37.00;24.60;44.50;;;;;;112321;1244;46138;-69
2023/01/14 10:04:23;;;;;;;;;48.00;33.75;24.60;44.50;;;;;;112290;1244;56125;-69
2023/01/14 10:06:53;;;;;;;;;38.00;32.50;24.60;44.50;;;;;;112303;1247;56190;-68
2023/01/14 10:09:28;;;;;;;;;48.33;35.00;24.60;44.50;;;;;;112302;1247;49296;-69
2023/01/14 10:11:57;;;;;;;;;45.67;33.00;24.60;44.50;;;;;;112298;1247;49238;-69
2023/01/14 10:14:28;;;;;;;;;49.00;37.00;24.60;44.50;;;;;;112335;1247;46197;-69
2023/01/14 10:17:01;;;;;;;;;52.33;39.33;24.60;44.50;;;;;;112306;1247;56611;-68
2023/01/14 10:19:50;;;;;;;;;42.00;32.00;24.60;44.50;;;;;;112316;1247;56319;-69
2023/01/14 10:22:38;;;;;;;;;48.00;35.25;24.60;44.70;;;;;;112318;1247;49590;-69
2023/01/14 10:25:17;;;;;;;;;44.00;33.33;24.60;44.50;;;;;;112311;1245;49288;-69
2023/01/14 10:27:47;;;;;;;;;47.75;36.25;24.60;44.40;;;;;;112327;1244;46172;-69
2023/01/14 10:30:24;;;;;;;;;47.00;36.25;24.60;44.40;;;;;;112327;1247;56286;-69
2023/01/14 10:32:52;;;;;;;;;45.25;34.75;24.60;44.50;;;;;;112312;1245;55555;-68
2023/01/14 10:35:28;;;;;;;;;50.75;35.75;24.60;44.40;;;;;;112303;1247;50490;-69
2023/01/14 10:37:55;;;;;;;;;45.00;35.00;24.50;44.30;;;;;;112290;1244;48873;-69
2023/01/14 10:40:24;;;;;;;;;38.50;32.50;24.50;44.50;;;;;;112274;1247;46091;-68
2023/01/14 10:42:52;;;;;;;;;41.75;33.50;24.50;44.30;;;;;;112288;1247;56803;-69
2023/01/14 10:45:19;;;;;;;;;51.00;37.00;24.60;44.40;;;;;;112324;1247;55984;-71
2023/01/14 10:47:48;;;;;;;;;41.00;32.75;24.60;45.80;;;;;;112307;1247;50195;-67
2023/01/14 10:50:20;;;;;;;;;45.00;34.50;24.60;44.70;;;;;;112300;1247;49787;-67
2023/01/14 10:52:49;;;;;;;;;40.00;32.75;24.50;44.60;;;;;;112353;1247;45754;-67
2023/01/14 10:55:19;;;;;;;;;49.00;36.00;24.40;44.60;;;;;;112325;1247;55575;-67
2023/01/14 10:57:53;;;;;;;;;48.25;35.75;24.40;44.70;;;;;;112209;1247;56326;-68
2023/01/14 11:00:36;;;;;;;;;43.50;33.00;24.40;44.70;;;;;;112235;1244;50397;-68
2023/01/14 11:03:07;;;;;;;;;47.50;34.50;24.40;44.70;;;;;;112324;1244;49793;-67
2023/01/14 11:05:37;;;;;;;;;47.50;36.00;24.40;44.70;;;;;;112323;1247;45664;-67
2023/01/14 11:08:13;;;;;;;;;47.67;35.00;24.40;44.70;;;;;;112219;1247;56909;-67
2023/01/14 11:10:41;;;;;;;;;39.00;32.00;24.30;44.60;;;;;;112297;1247;55749;-67
2023/01/14 11:13:29;;;;;;;;;47.67;35.67;24.30;44.70;;;;;;112290;1247;50457;-67
2023/01/14 11:15:57;;;;;;;;;43.75;32.00;24.30;44.70;;;;;;112299;1247;49064;-67
2023/01/14 11:18:27;;;;;;;;;47.50;33.50;24.30;44.70;;;;;;112332;1244;45208;-68
2023/01/14 11:21:21;;;;;;;;;34.25;30.75;24.30;44.70;;;;;;112308;1247;56209;-68
2023/01/14 11:24:22;;;;;;;;;40.67;30.67;24.30;44.70;;;;;;112207;1248;56767;-66
2023/01/14 11:26:50;;;;;;;;;45.75;32.50;24.20;44.60;;;;;;112224;1246;50509;-67
2023/01/14 11:29:34;;;;;;;;;42.00;35.00;24.30;44.70;;;;;;112224;1244;50406;-66
2023/01/14 11:32:10;;;;;;;;;44.50;34.00;24.30;44.60;;;;;;112361;1243;45473;-67
2023/01/14 11:34:57;;;;;;;;;39.67;31.00;24.30;44.60;;;;;;112324;1247;56317;-64
2023/01/14 11:37:36;;;;;;;;;47.67;36.00;24.30;44.60;;;;;;112306;1243;56269;-64
2023/01/14 11:40:05;;;;;;;;;40.25;31.25;24.30;44.80;;;;;;112302;1247;49813;-63
2023/01/14 11:42:34;;;;;;;;;45.33;32.33;24.30;44.50;;;;;;112293;1244;49596;-64
2023/01/14 11:45:10;;;;;;;;;35.75;29.00;24.20;44.30;;;;;;112321;1247;45873;-65
2023/01/14 11:47:55;;;;;;;;;43.75;33.25;24.20;44.30;;;;;;112317;1247;56946;-70
2023/01/14 11:50:26;;;;;;;;;38.33;33.33;24.30;44.90;;;;;;112297;1247;56242;-68
2023/01/14 11:53:18;;;;;;;;;37.00;32.00;24.30;45.10;;;;;;112293;1243;50497;-69
2023/01/14 11:55:49;;;;;;;;;44.00;32.25;24.20;45.00;;;;;;112280;1247;49648;-69
2023/01/14 11:58:25;;;;;;;;;41.00;31.67;24.30;45.10;;;;;;112323;1247;46868;-71
2023/01/14 12:00:55;;;;;;;;;38.67;32.67;24.20;45.00;;;;;;112309;1247;56152;-69
2023/01/14 12:03:36;;;;;;;;;36.00;30.00;24.30;45.10;;;;;;112294;1243;56288;-72
2023/01/14 12:06:30;;;;;;;;;43.67;31.33;24.30;44.90;;;;;;112326;1247;49196;-69
2023/01/14 12:09:01;;;;;;;;;40.00;33.50;24.20;44.70;;;;;;112279;1247;50388;-73
2023/01/14 12:11:52;;;;;;;;;47.33;33.67;24.20;43.10;;;;;;112314;1247;45158;-73
2023/01/14 12:17:14;;;;;;;;;42.67;32.00;24.30;44.40;;;;;;112237;1244;55196;-76
2023/01/14 12:19:52;;;;;;;;;39.00;33.33;24.30;44.60;;;;;;112298;1247;49184;-74
2023/01/14 12:22:52;;;;;;;;;43.00;33.00;24.30;44.40;;;;;;111443;1250;852494;-74
2023/01/14 12:25:29;;;;;;;;;43.33;36.00;24.30;44.50;;;;;;112295;1243;45792;-67
2023/01/14 12:28:02;;;;;;;;;48.25;38.50;24.30;44.90;;;;;;112238;1247;56278;-64
2023/01/14 12:30:40;;;;;;;;;45.67;38.00;24.30;44.80;;;;;;112300;1247;55689;-68
2023/01/14 12:33:21;;;;;;;;;38.50;33.75;24.30;44.80;;;;;;112231;1244;49183;-69
2023/01/14 12:36:07;;;;;;;;;39.67;31.33;24.40;44.90;;;;;;112321;1243;49406;-67
2023/01/14 12:47:41;;;;;;;;;43.50;32.00;24.40;45.10;;;;;;112315;1244;50105;-67
2023/01/14 12:50:12;;;;;;;;;43.67;34.00;24.50;45.20;;;;;;112337;1248;49754;-68
2023/01/14 12:52:47;;;;;;;;;33.00;30.00;24.50;45.20;;;;;;112319;1247;45625;-68
2023/01/14 12:55:33;;;;;;;;;35.00;32.00;24.50;45.10;;;;;;112343;1247;57058;-67
2023/01/14 12:58:01;;;;;;;;;42.33;32.67;24.50;45.20;;;;;;112304;1244;55533;-66
2023/01/14 13:00:38;;;;;;;;;36.25;31.75;24.60;45.30;;;;;;112313;1247;49166;-75
2023/01/14 13:03:12;;;;;;;;;37.50;31.75;24.50;45.70;;;;;;112311;1244;49652;-64
2023/01/14 13:05:42;;;;;;;;;38.00;32.00;24.60;45.80;;;;;;112394;1247;45516;-64
2023/01/14 13:08:20;;;;;;;;;37.00;31.00;24.60;45.60;;;;;;112494;1243;55830;-65
2023/01/14 13:11:01;;;;;;;;;33.25;29.75;24.60;45.40;;;;;;112295;1247;55809;-65
2023/01/14 13:13:29;;;;;;;;;41.25;31.50;24.70;45.30;;;;;;112327;1247;49682;-67
2023/01/14 13:15:58;;;;;;;;;42.33;31.67;24.70;45.20;;;;;;112299;1247;49594;-66
2023/01/14 13:18:34;;;;;;;;;37.00;31.67;24.70;45.20;;;;;;112211;1248;46933;-66
2023/01/14 13:21:08;;;;;;;;;36.25;31.00;24.60;45.10;;;;;;112282;1247;56542;-65